Time;durP1;ratioP1;P1;durP2;ratioP2;P2;SDS_P1;SDS_P2;PMS_P1;PMS_P2;Temp;Humidity;BMP_temperature;BMP_pressure;BME280_temperature;BME280_humidity;BME280_pressure;Samples;Min_cycle;Max_cycle;Signal;HPM_P1;HPM_P2
2021/12/22 00:51:37;;;;;;;;;;;;;;;-0.93;73.79;100566.13;5047969;23;19926;-84
2021/12/22 01:00:00;;;;;;;;;;;;;;;-0.69;73.77;100567.56;5174893;23;19937;-87
2021/12/22 01:14:09;;;;;;;;;;;;;;;-0.50;73.56;100573.63;5297225;23;19941;-89
2021/12/22 01:16:51;;;;;;;;;;;;;;;-0.43;73.29;100574.06;5014955;28;19965;-85
2021/12/22 01:19:33;;;;;;;;;;;;;;;-0.37;73.05;100571.03;4999728;28;19929;-87
2021/12/22 01:25:08;;;;;;;;;;;;;;;-0.32;72.79;100573.03;4985398;28;19925;-87
2021/12/22 01:27:44;;;;;;;;;;;;;;;-0.30;72.70;100579.00;4998605;28;19926;-87
2021/12/22 01:30:22;;;;;;;;;;;;;;;-0.26;72.52;100580.91;4997374;28;20268;-88
2021/12/22 01:32:58;;;;;;;;;;;;;;;-0.27;71.97;100581.69;4996647;28;19929;-88
2021/12/22 01:35:32;;;;;;;;;;;;;;;-0.26;72.29;100582.53;4998993;28;19925;-88
2021/12/22 01:38:07;;;;;;;;;;;;;;;-0.29;72.13;100580.72;4997267;28;19930;-87
2021/12/22 01:40:44;;;;;;;;;;;;;;;-0.29;72.21;100588.25;4998776;28;19926;-86
2021/12/22 01:44:27;;;;;;;;;;;;;;;-0.29;72.41;100590.75;3093520;26;20012;-87
2021/12/22 01:50:37;;;;;;;;;;;;;;;-0.21;72.26;100599.59;4996680;28;19957;-86
2021/12/22 01:53:32;;;;;;;;;;;;;;;-0.20;72.02;100598.81;4995617;28;19932;-87
2021/12/22 01:56:16;;;;;;;;;;;;;;;-0.19;72.40;100593.00;4995893;28;20020;-86
2021/12/22 01:58:52;;;;;;;;;;;;;;;-0.21;72.15;100604.59;4996203;28;19972;-84
2021/12/22 02:01:27;;;;;;;;;;;;;;;-0.21;72.04;100604.59;4996670;28;19930;-86
2021/12/22 02:03:59;;;;;;;;;;;;;;;-0.18;72.51;100608.91;4996998;28;19926;-88
2021/12/22 02:06:36;;;;;;;;;;;;;;;-0.12;72.53;100615.16;4996452;28;19948;-86
2021/12/22 02:09:11;;;;;;;;;;;;;;;-0.15;72.43;100609.09;4995565;28;19925;-87
2021/12/22 02:11:45;;;;;;;;;;;;;;;-0.16;72.37;100613.25;4996352;28;19930;-86
2021/12/22 02:14:21;;;;;;;;;;;;;;;-0.16;72.34;100613.25;4995183;28;19926;-86
2021/12/22 02:16:54;;;;;;;;;;;;;;;-0.22;72.61;100609.53;4996630;28;19925;-86
2021/12/22 02:19:27;;;;;;;;;;;;;;;-0.16;72.60;100612.38;4996469;28;20398;-86
2021/12/22 02:22:12;;;;;;;;;;;;;;;-0.18;72.61;100614.81;4994881;28;20406;-85
2021/12/22 02:24:49;;;;;;;;;;;;;;;-0.18;72.52;100617.31;4995978;28;19930;-84
2021/12/22 02:27:26;;;;;;;;;;;;;;;-0.26;72.02;100620.16;4994264;28;20326;-82
2021/12/22 02:30:03;;;;;;;;;;;;;;;-0.32;72.79;100620.69;4994746;28;20338;-85
2021/12/22 02:35:41;;;;;;;;;;;;;;;-0.27;72.93;100618.44;4995730;28;19933;-84
2021/12/22 02:38:18;;;;;;;;;;;;;;;-0.24;72.79;100614.44;4995714;28;19930;-83
2021/12/22 02:40:53;;;;;;;;;;;;;;;-0.19;72.35;100608.06;4994455;28;19925;-84
2021/12/22 02:43:31;;;;;;;;;;;;;;;-0.16;72.84;100612.38;4995458;28;19930;-83
2021/12/22 02:46:04;;;;;;;;;;;;;;;-0.17;72.77;100614.00;4994653;28;19926;-87
2021/12/22 02:48:37;;;;;;;;;;;;;;;-0.09;72.82;100622.84;4978562;28;19980;-86
2021/12/22 02:51:10;;;;;;;;;;;;;;;-0.05;72.78;100621.38;4994396;28;19925;-84
2021/12/22 02:53:49;;;;;;;;;;;;;;;-0.03;72.35;100620.69;4995596;28;19930;-85
2021/12/22 02:56:37;;;;;;;;;;;;;;;-0.08;72.41;100621.22;4994498;28;19932;-85
2021/12/22 02:59:31;;;;;;;;;;;;;;;-0.10;72.25;100617.75;4995379;28;19926;-86
2021/12/22 03:05:05;;;;;;;;;;;;;;;-0.25;72.34;100612.75;4995865;28;19925;-81
2021/12/22 03:07:37;;;;;;;;;;;;;;;-0.29;72.48;100625.03;4997925;28;19926;-86
2021/12/22 03:10:17;;;;;;;;;;;;;;;-0.25;72.54;100617.75;4995316;28;20299;-85
2021/12/22 03:13:01;;;;;;;;;;;;;;;-0.30;72.67;100621.63;4994771;28;19977;-85
2021/12/22 03:15:34;;;;;;;;;;;;;;;-0.35;72.92;100615.50;4978170;28;19925;-82
2021/12/22 03:18:07;;;;;;;;;;;;;;;-0.33;72.88;100613.94;4995202;28;19972;-84
2021/12/22 03:20:41;;;;;;;;;;;;;;;-0.24;73.28;100616.97;4978684;28;19925;-83
2021/12/22 03:23:12;;;;;;;;;;;;;;;-0.12;73.13;100619.31;4996029;28;19929;-84
2021/12/22 03:25:46;;;;;;;;;;;;;;;-0.13;72.83;100618.44;4995377;28;19948;-82
2021/12/22 03:28:19;;;;;;;;;;;;;;;-0.21;73.05;100624.66;4994836;28;19926;-83
2021/12/22 03:30:53;;;;;;;;;;;;;;;-0.21;73.05;100627.16;4995389;28;20032;-84
2021/12/22 03:33:23;;;;;;;;;;;;;;;-0.14;73.00;100626.75;4995161;28;19937;-84
2021/12/22 03:35:54;;;;;;;;;;;;;;;-0.13;72.80;100618.44;4994245;28;19962;-84
2021/12/22 03:38:25;;;;;;;;;;;;;;;-0.08;72.95;100632.13;4995817;28;20275;-88
2021/12/22 03:41:00;;;;;;;;;;;;;;;-0.06;72.68;100623.03;4993374;28;19917;-81
2021/12/22 03:43:33;;;;;;;;;;;;;;;-0.11;72.44;100626.91;5019514;28;19965;-83
2021/12/22 03:46:08;;;;;;;;;;;;;;;-0.24;72.70;100632.00;5001481;28;19933;-84
2021/12/22 03:48:42;;;;;;;;;;;;;;;-0.19;72.49;100628.13;4978128;28;19930;-84
2021/12/22 03:51:18;;;;;;;;;;;;;;;-0.09;72.71;100635.41;4994683;28;20445;-84
2021/12/22 03:53:52;;;;;;;;;;;;;;;-0.07;72.78;100633.81;4995073;28;20290;-84
2021/12/22 03:56:27;;;;;;;;;;;;;;;-0.04;72.61;100629.00;4977475;28;19976;-83
2021/12/22 03:59:00;;;;;;;;;;;;;;;-0.07;72.39;100628.81;4977628;28;20376;-84
2021/12/22 04:01:39;;;;;;;;;;;;;;;-0.22;72.39;100627.97;4994971;28;19966;-84
2021/12/22 04:04:15;;;;;;;;;;;;;;;-0.16;72.35;100623.28;4976875;28;19947;-84
2021/12/22 04:06:50;;;;;;;;;;;;;;;-0.07;72.72;100623.78;4994775;28;19926;-84
2021/12/22 04:09:27;;;;;;;;;;;;;;;-0.05;72.32;100619.72;4994912;28;19926;-85
2021/12/22 04:12:01;;;;;;;;;;;;;;;-0.01;72.23;100619.13;4994506;28;19926;-85
2021/12/22 04:14:35;;;;;;;;;;;;;;;0.05;72.01;100618.59;4994718;28;19972;-86
2021/12/22 04:17:08;;;;;;;;;;;;;;;0.02;72.00;100612.56;4962100;28;19926;-85
2021/12/22 04:19:41;;;;;;;;;;;;;;;-0.08;71.72;100607.03;4997052;28;19925;-85
2021/12/22 04:22:13;;;;;;;;;;;;;;;-0.12;71.96;100619.31;5000784;28;19933;-85
2021/12/22 04:24:48;;;;;;;;;;;;;;;-0.07;71.91;100608.75;4998225;28;20024;-85
2021/12/22 04:27:22;;;;;;;;;;;;;;;-0.01;72.04;100614.13;4997721;28;19938;-85
2021/12/22 04:29:55;;;;;;;;;;;;;;;0.01;71.85;100619.22;5006650;28;19945;-85
2021/12/22 04:32:24;;;;;;;;;;;;;;;0.06;71.69;100620.34;5011894;28;19949;-83
2021/12/22 04:34:57;;;;;;;;;;;;;;;0.04;71.85;100626.91;5015728;28;19957;-84
2021/12/22 04:37:27;;;;;;;;;;;;;;;0.01;71.71;100624.22;4999464;28;19956;-83
2021/12/22 04:39:56;;;;;;;;;;;;;;;-0.07;71.65;100628.81;5008478;28;20363;-85
2021/12/22 04:42:27;;;;;;;;;;;;;;;-0.20;71.76;100630.56;4996838;28;19926;-84
2021/12/22 04:45:05;;;;;;;;;;;;;;;-0.20;72.18;100620.50;4997941;28;19932;-85
2021/12/22 04:47:35;;;;;;;;;;;;;;;-0.20;72.15;100630.56;4996677;28;19988;-85
2021/12/22 04:50:09;;;;;;;;;;;;;;;-0.20;72.06;100631.41;4998084;28;19933;-85
2021/12/22 04:52:48;;;;;;;;;;;;;;;-0.16;72.01;100628.31;4998088;28;20291;-83
2021/12/22 04:55:18;;;;;;;;;;;;;;;-0.20;71.94;100626.41;4965003;28;19926;-83
2021/12/22 04:57:52;;;;;;;;;;;;;;;-0.25;72.17;100626.91;4996929;28;19976;-82
2021/12/22 05:00:24;;;;;;;;;;;;;;;-0.32;72.18;100630.72;4997586;28;19973;-83
2021/12/22 05:02:57;;;;;;;;;;;;;;;-0.34;72.35;100627.28;4997988;28;19934;-82
2021/12/22 05:05:56;;;;;;;;;;;;;;;-0.26;72.15;100626.03;4997930;28;20368;-82
2021/12/22 05:08:30;;;;;;;;;;;;;;;-0.26;72.12;100630.19;4996691;28;20011;-84
2021/12/22 05:11:00;;;;;;;;;;;;;;;-0.40;72.05;100636.06;4997432;28;19925;-84
2021/12/22 05:13:36;;;;;;;;;;;;;;;-0.51;72.12;100632.94;4997412;28;20375;-84
2021/12/22 05:16:06;;;;;;;;;;;;;;;-0.54;72.21;100637.78;4997350;28;20020;-82
2021/12/22 05:21:26;;;;;;;;;;;;;;;-0.63;72.66;100639.75;4995877;28;19925;-84
2021/12/22 05:23:59;;;;;;;;;;;;;;;-0.66;72.72;100642.06;4997188;28;19957;-85
2021/12/22 05:26:35;;;;;;;;;;;;;;;-0.72;72.70;100641.72;4997283;28;20021;-83
2021/12/22 05:29:11;;;;;;;;;;;;;;;-0.82;72.94;100644.44;4997422;28;19926;-83
2021/12/22 05:31:44;;;;;;;;;;;;;;;-0.86;73.35;100645.03;4979504;28;20016;-82
2021/12/22 05:34:18;;;;;;;;;;;;;;;-0.89;73.18;100647.38;4979685;28;19927;-83
2021/12/22 05:36:55;;;;;;;;;;;;;;;-0.93;73.28;100650.44;4979860;28;20376;-84
2021/12/22 05:39:36;;;;;;;;;;;;;;;-0.96;73.62;100650.28;4997739;28;19925;-82
2021/12/22 05:42:17;;;;;;;;;;;;;;;-0.99;73.60;100650.09;5002658;28;19926;-81
2021/12/22 05:45:00;;;;;;;;;;;;;;;-1.06;73.49;100658.00;4995721;28;19989;-83
2021/12/22 05:47:41;;;;;;;;;;;;;;;-1.05;73.84;100654.72;4998644;28;19926;-82
2021/12/22 05:50:17;;;;;;;;;;;;;;;-1.03;74.49;100660.72;4996107;28;19985;-82
2021/12/22 05:52:51;;;;;;;;;;;;;;;-1.02;74.01;100669.94;4951602;28;20005;-81
2021/12/22 05:55:32;;;;;;;;;;;;;;;-1.05;74.14;100669.75;4980988;28;19932;-83
2021/12/22 05:59:05;;;;;;;;;;;;;;;-0.97;74.39;100669.44;5007135;28;19933;-83
2021/12/22 06:01:44;;;;;;;;;;;;;;;-0.93;74.13;100676.38;4996827;28;20032;-81
2021/12/22 06:04:18;;;;;;;;;;;;;;;-0.92;74.34;100678.13;4995140;28;19936;-82
2021/12/22 06:06:54;;;;;;;;;;;;;;;-0.91;74.22;100673.97;4997053;28;20359;-84
2021/12/22 06:09:28;;;;;;;;;;;;;;;-0.85;74.44;100679.34;4996759;28;20401;-84
2021/12/22 06:12:06;;;;;;;;;;;;;;;-0.80;74.51;100683.00;4996975;28;20459;-84
2021/12/22 06:14:38;;;;;;;;;;;;;;;-0.74;74.36;100681.72;4996597;28;20012;-83
2021/12/22 06:17:15;;;;;;;;;;;;;;;-0.70;74.36;100680.25;4996618;28;19925;-82
2021/12/22 06:19:49;;;;;;;;;;;;;;;-0.71;74.21;100683.53;4996751;28;20295;-83
2021/12/22 06:22:23;;;;;;;;;;;;;;;-0.67;74.17;100685.44;4996953;28;19932;-82
2021/12/22 06:24:57;;;;;;;;;;;;;;;-0.66;73.79;100692.19;4997242;28;19930;-84
2021/12/22 06:27:26;;;;;;;;;;;;;;;-0.77;73.77;100694.03;4949947;28;19925;-83
2021/12/22 06:30:03;;;;;;;;;;;;;;;-0.87;73.72;100698.44;4999144;28;19932;-81
2021/12/22 06:32:42;;;;;;;;;;;;;;;-0.95;73.89;100702.97;4951696;28;19929;-81
2021/12/22 06:35:15;;;;;;;;;;;;;;;-1.06;73.87;100703.97;4958453;28;19973;-80
2021/12/22 06:37:51;;;;;;;;;;;;;;;-1.12;73.87;100710.22;5020623;28;19909;-81
2021/12/22 06:40:25;;;;;;;;;;;;;;;-1.18;74.04;100718.22;5008502;28;19925;-81
2021/12/22 06:43:24;;;;;;;;;;;;;;;-1.24;73.80;100726.97;5004493;28;19926;-81
2021/12/22 06:46:02;;;;;;;;;;;;;;;-1.26;74.28;100723.53;4982903;28;19926;-81
2021/12/22 06:48:39;;;;;;;;;;;;;;;-1.40;74.23;100731.03;4999379;28;20368;-81
2021/12/22 06:51:13;;;;;;;;;;;;;;;-1.51;74.25;100737.00;5000299;28;20371;-80
2021/12/22 06:53:50;;;;;;;;;;;;;;;-1.59;74.64;100743.16;4982856;28;20503;-81
2021/12/22 06:56:25;;;;;;;;;;;;;;;-1.52;74.52;100746.91;4982528;28;19926;-81
2021/12/22 06:59:01;;;;;;;;;;;;;;;-1.67;74.48;100743.41;4934656;28;19930;-81
2021/12/22 07:01:42;;;;;;;;;;;;;;;-1.88;74.46;100747.91;4997794;28;19937;-80
2021/12/22 07:04:23;;;;;;;;;;;;;;;-1.95;74.78;100750.78;4951226;28;20336;-80
2021/12/22 07:07:00;;;;;;;;;;;;;;;-1.99;74.83;100756.34;4998593;28;20375;-80
2021/12/22 07:09:37;;;;;;;;;;;;;;;-1.95;74.84;100755.78;4997999;28;19925;-80
2021/12/22 07:12:16;;;;;;;;;;;;;;;-1.96;74.89;100756.53;4998220;28;19926;-80
2021/12/22 07:14:49;;;;;;;;;;;;;;;-2.00;75.08;100762.13;4921210;28;19926;-80
2021/12/22 07:17:25;;;;;;;;;;;;;;;-1.95;75.27;100765.78;4999001;28;19926;-80
2021/12/22 07:20:08;;;;;;;;;;;;;;;-1.94;75.01;100770.00;4997972;28;19988;-80
2021/12/22 07:22:41;;;;;;;;;;;;;;;-1.91;75.10;100767.72;4998211;28;19952;-79
2021/12/22 07:25:17;;;;;;;;;;;;;;;-1.81;75.11;100770.06;5009652;28;19930;-80
2021/12/22 07:28:04;;;;;;;;;;;;;;;-1.74;75.10;100774.69;4998918;28;19933;-80
2021/12/22 07:30:39;;;;;;;;;;;;;;;-1.63;75.19;100780.41;4949578;28;20016;-79
2021/12/22 07:33:18;;;;;;;;;;;;;;;-1.56;74.96;100785.88;4999672;28;19926;-80
2021/12/22 07:36:03;;;;;;;;;;;;;;;-1.41;74.87;100786.88;5006625;28;19926;-81
2021/12/22 07:38:49;;;;;;;;;;;;;;;-1.29;74.74;100790.91;4933860;28;19933;-80
2021/12/22 07:41:27;;;;;;;;;;;;;;;-1.23;74.72;100786.31;5006893;28;19910;-81
2021/12/22 07:44:00;;;;;;;;;;;;;;;-1.08;74.56;100784.78;4997461;28;19930;-82
2021/12/22 07:46:37;;;;;;;;;;;;;;;-0.86;74.41;100782.81;4995276;28;19925;-84
2021/12/22 07:49:26;;;;;;;;;;;;;;;-0.68;74.06;100778.97;4994413;28;19969;-84
2021/12/22 07:52:09;;;;;;;;;;;;;;;-0.65;73.75;100784.16;4970736;28;19997;-84
2021/12/22 07:58:56;;;;;;;;;;;;;;;-0.10;73.09;100794.19;4999811;28;20375;-80
2021/12/22 08:01:32;;;;;;;;;;;;;;;0.11;72.98;100798.75;4997872;28;19930;-81
2021/12/22 08:04:02;;;;;;;;;;;;;;;0.27;72.60;100802.25;4998818;28;19976;-86
2021/12/22 08:06:32;;;;;;;;;;;;;;;0.37;72.41;100801.13;4998729;28;19932;-86
2021/12/22 08:09:03;;;;;;;;;;;;;;;0.53;72.04;100799.56;4997376;28;20384;-84
2021/12/22 08:11:35;;;;;;;;;;;;;;;0.69;72.21;100803.84;4997545;28;19925;-85
2021/12/22 08:14:06;;;;;;;;;;;;;;;0.81;71.44;100813.69;4997313;28;19926;-85
2021/12/22 08:16:35;;;;;;;;;;;;;;;0.74;70.85;100814.13;4998497;28;20442;-86
2021/12/22 08:19:05;;;;;;;;;;;;;;;0.62;71.00;100817.66;4998836;28;19925;-85
2021/12/22 08:21:36;;;;;;;;;;;;;;;0.58;71.33;100825.81;4998606;28;19925;-87
2021/12/22 08:24:08;;;;;;;;;;;;;;;0.66;71.12;100828.78;4999829;28;20375;-88
2021/12/22 08:26:37;;;;;;;;;;;;;;;0.71;71.16;100831.53;5002290;28;19926;-84
2021/12/22 08:29:07;;;;;;;;;;;;;;;0.68;71.02;100832.22;5000046;28;20372;-87
2021/12/22 08:31:37;;;;;;;;;;;;;;;0.59;70.76;100831.72;5002689;28;20456;-86
2021/12/22 08:34:10;;;;;;;;;;;;;;;0.73;71.23;100825.81;4998406;28;19930;-87
2021/12/22 08:39:32;;;;;;;;;;;;;;;0.86;71.76;100830.78;4998376;28;19932;-87
2021/12/22 08:42:02;;;;;;;;;;;;;;;0.98;70.85;100839.00;4998600;28;19926;-87
2021/12/22 08:44:33;;;;;;;;;;;;;;;1.02;71.15;100845.03;4998062;28;20276;-84
2021/12/22 08:47:04;;;;;;;;;;;;;;;0.89;70.49;100838.47;4998253;28;20391;-84
2021/12/22 08:49:35;;;;;;;;;;;;;;;0.70;70.09;100840.72;4998352;28;19980;-83
2021/12/22 08:52:08;;;;;;;;;;;;;;;0.74;70.08;100837.63;4998067;28;19926;-87
2021/12/22 08:54:40;;;;;;;;;;;;;;;0.73;69.77;100840.91;4996689;28;19929;-87
2021/12/22 08:57:10;;;;;;;;;;;;;;;0.82;69.80;100856.47;4996967;28;19926;-86
2021/12/22 08:59:39;;;;;;;;;;;;;;;0.96;69.13;100850.59;4980401;28;20437;-87
2021/12/22 09:02:08;;;;;;;;;;;;;;;1.12;68.79;100858.22;4981020;28;20319;-87
2021/12/22 09:04:39;;;;;;;;;;;;;;;1.10;67.93;100849.72;4998321;28;20362;-86
2021/12/22 09:07:31;;;;;;;;;;;;;;;0.86;67.61;100852.50;5003282;28;19992;-88
2021/12/22 09:13:37;;;;;;;;;;;;;;;0.86;66.87;100850.00;5295945;23;19925;-89
2021/12/22 09:16:07;;;;;;;;;;;;;;;1.11;66.76;100841.38;4996711;28;19926;-86
2021/12/22 09:18:38;;;;;;;;;;;;;;;1.07;66.22;100854.59;4998179;28;19930;-85
2021/12/22 09:21:10;;;;;;;;;;;;;;;1.07;65.37;100848.69;4999106;28;19929;-84
2021/12/22 09:23:40;;;;;;;;;;;;;;;1.02;65.52;100845.91;4997173;28;20355;-84
2021/12/22 09:26:20;;;;;;;;;;;;;;;0.75;64.88;100836.81;5002185;28;20014;-80
2021/12/22 09:29:44;;;;;;;;;;;;;;;0.61;64.30;100845.22;5132833;23;20283;-81
2021/12/22 09:32:21;;;;;;;;;;;;;;;0.70;63.96;100844.91;5003683;28;19932;-81
2021/12/22 09:34:51;;;;;;;;;;;;;;;0.80;63.48;100842.09;5009459;28;19925;-80
2021/12/22 09:37:20;;;;;;;;;;;;;;;0.91;63.77;100839.41;5018101;28;19925;-80
2021/12/22 09:39:52;;;;;;;;;;;;;;;1.00;63.57;100839.94;5010427;28;19925;-84
2021/12/22 09:42:28;;;;;;;;;;;;;;;0.91;63.58;100841.91;5004825;28;19926;-83
2021/12/22 09:45:10;;;;;;;;;;;;;;;0.85;63.63;100849.13;4997840;28;19926;-81
2021/12/22 09:48:03;;;;;;;;;;;;;;;0.76;63.84;100841.09;5005315;28;19933;-82
2021/12/22 09:53:31;;;;;;;;;;;;;;;1.01;63.63;100839.13;4995898;28;19933;-84
2021/12/22 09:56:06;;;;;;;;;;;;;;;1.15;63.57;100833.22;4996575;28;20020;-86
2021/12/22 09:58:48;;;;;;;;;;;;;;;1.39;64.04;100828.69;4996641;28;20491;-85
2021/12/22 10:01:22;;;;;;;;;;;;;;;1.47;63.87;100826.56;4996994;28;19926;-86
2021/12/22 10:03:56;;;;;;;;;;;;;;;1.55;63.72;100818.66;4996630;28;19973;-86
2021/12/22 10:06:26;;;;;;;;;;;;;;;1.70;64.05;100821.13;4995846;28;19925;-87
2021/12/22 10:08:59;;;;;;;;;;;;;;;1.53;63.54;100806.78;4996826;28;19973;-85
2021/12/22 10:11:31;;;;;;;;;;;;;;;1.59;62.95;100813.00;4996225;28;19973;-86
2021/12/22 10:14:00;;;;;;;;;;;;;;;1.76;62.15;100816.38;4996020;28;19925;-85
2021/12/22 10:16:32;;;;;;;;;;;;;;;2.00;61.86;100813.50;4996199;28;19925;-87
2021/12/22 10:19:07;;;;;;;;;;;;;;;2.32;61.27;100811.75;4995438;28;19926;-86
2021/12/22 10:21:52;;;;;;;;;;;;;;;2.37;60.02;100816.22;4995953;28;19933;-85
2021/12/22 10:24:37;;;;;;;;;;;;;;;2.24;60.01;100808.84;4996169;28;19932;-88
2021/12/22 10:27:08;;;;;;;;;;;;;;;2.07;59.77;100804.59;4963434;28;19926;-86
2021/12/22 10:29:39;;;;;;;;;;;;;;;2.00;59.72;100798.41;4995559;28;19926;-85
2021/12/22 10:32:16;;;;;;;;;;;;;;;2.36;59.33;100804.41;4978055;28;20072;-85
2021/12/22 10:34:54;;;;;;;;;;;;;;;2.36;58.19;100801.91;4995736;28;19926;-84
2021/12/22 10:37:37;;;;;;;;;;;;;;;2.25;58.49;100805.53;4978293;28;20346;-85
2021/12/22 10:40:20;;;;;;;;;;;;;;;2.20;58.85;100801.06;4978622;28;19948;-84
2021/12/22 10:42:50;;;;;;;;;;;;;;;2.27;58.36;100803.97;4995873;28;19932;-87
2021/12/22 10:45:20;;;;;;;;;;;;;;;2.23;58.95;100797.03;4995392;28;19929;-85
2021/12/22 10:50:34;;;;;;;;;;;;;;;2.22;58.47;100795.31;4994458;28;20028;-84
2021/12/22 10:53:07;;;;;;;;;;;;;;;2.41;58.23;100792.91;4995839;28;20294;-84
2021/12/22 10:55:38;;;;;;;;;;;;;;;2.43;58.52;100790.47;4994371;28;20020;-84
2021/12/22 10:58:19;;;;;;;;;;;;;;;2.82;57.39;100786.50;4994601;28;19926;-84
2021/12/22 11:01:04;;;;;;;;;;;;;;;2.96;57.49;100785.47;4995335;28;19930;-85
2021/12/22 11:03:37;;;;;;;;;;;;;;;3.01;57.41;100784.03;4994616;28;19933;-85
2021/12/22 11:06:12;;;;;;;;;;;;;;;2.72;56.93;100788.56;4995378;28;19925;-85
2021/12/22 11:08:52;;;;;;;;;;;;;;;2.77;57.03;100777.84;4995220;28;19925;-85
2021/12/22 11:11:22;;;;;;;;;;;;;;;2.73;57.77;100782.72;4993807;28;19969;-84
2021/12/22 11:14:01;;;;;;;;;;;;;;;3.20;57.61;100776.53;4995281;28;19932;-82
2021/12/22 11:16:36;;;;;;;;;;;;;;;3.25;57.27;100770.91;4995255;28;19948;-86
2021/12/22 11:19:10;;;;;;;;;;;;;;;3.73;56.39;100776.44;4994191;28;19929;-86
2021/12/22 11:21:52;;;;;;;;;;;;;;;3.68;56.32;100762.75;4993807;28;20037;-85
2021/12/22 11:24:26;;;;;;;;;;;;;;;3.84;55.53;100766.00;4994312;28;19933;-86
2021/12/22 11:26:55;;;;;;;;;;;;;;;3.92;55.04;100764.66;4995052;28;20020;-85
2021/12/22 11:29:25;;;;;;;;;;;;;;;4.16;54.64;100754.75;4993791;28;20334;-82
2021/12/22 11:31:59;;;;;;;;;;;;;;;3.91;53.90;100752.84;4977845;28;19926;-85
2021/12/22 11:34:34;;;;;;;;;;;;;;;3.83;54.10;100755.84;4938641;29;20317;-86
2021/12/22 11:37:07;;;;;;;;;;;;;;;4.06;53.16;100752.63;4954446;29;19927;-84
2021/12/22 11:39:41;;;;;;;;;;;;;;;4.14;52.80;100760.53;4954654;29;19930;-87
2021/12/22 11:42:13;;;;;;;;;;;;;;;4.19;52.14;100756.53;4954412;29;19942;-86
2021/12/22 11:44:45;;;;;;;;;;;;;;;4.40;51.85;100754.88;4954183;29;20056;-88
2021/12/22 11:47:16;;;;;;;;;;;;;;;4.54;51.23;100753.78;4954069;29;19957;-84
2021/12/22 11:49:53;;;;;;;;;;;;;;;4.64;51.14;100749.16;4938074;29;19926;-86
2021/12/22 11:52:33;;;;;;;;;;;;;;;4.81;50.49;100744.78;4969002;28;20014;-86
2021/12/22 11:55:14;;;;;;;;;;;;;;;4.64;50.15;100746.63;4993068;28;19929;-83
2021/12/22 11:57:46;;;;;;;;;;;;;;;4.63;49.64;100744.06;4993506;28;19934;-85
2021/12/22 12:00:22;;;;;;;;;;;;;;;4.83;49.34;100753.28;4994712;28;20439;-86
2021/12/22 12:02:56;;;;;;;;;;;;;;;4.87;48.79;100744.16;4994881;28;20495;-83
2021/12/22 12:08:17;;;;;;;;;;;;;;;5.09;47.96;100741.63;4994472;28;19984;-86
2021/12/22 12:10:49;;;;;;;;;;;;;;;5.47;47.96;100746.44;4993270;28;19926;-88
2021/12/22 12:13:38;;;;;;;;;;;;;;;5.74;46.13;100741.50;4994439;28;19929;-85
2021/12/22 12:22:10;;;;;;;;;;;;;;;5.95;44.10;100742.34;4993525;28;20372;-84
2021/12/22 12:24:44;;;;;;;;;;;;;;;6.77;44.27;100734.91;4993464;28;20009;-83
2021/12/22 12:27:28;;;;;;;;;;;;;;;7.64;43.20;100732.44;4994764;28;19932;-85
2021/12/22 12:30:02;;;;;;;;;;;;;;;8.33;41.84;100733.47;4993297;28;19940;-84
2021/12/22 12:32:45;;;;;;;;;;;;;;;8.53;40.57;100727.19;4993392;28;19926;-83
2021/12/22 12:36:19;;;;;;;;;;;;;;;8.64;39.66;100724.88;4953936;29;19969;-83
2021/12/22 12:38:50;;;;;;;;;;;;;;;8.94;39.51;100728.16;4922235;29;19993;-82
2021/12/22 12:41:21;;;;;;;;;;;;;;;8.72;38.39;100720.84;4939419;29;19927;-82
2021/12/22 12:43:57;;;;;;;;;;;;;;;7.73;40.16;100721.66;4926071;29;19942;-82
2021/12/22 12:46:35;;;;;;;;;;;;;;;7.16;40.38;100714.13;4958022;29;19949;-84
2021/12/22 12:49:14;;;;;;;;;;;;;;;6.60;41.10;100711.53;4958814;29;20333;-85
2021/12/22 12:51:57;;;;;;;;;;;;;;;5.86;42.54;100717.53;4943807;29;20377;-84
2021/12/22 12:54:28;;;;;;;;;;;;;;;5.24;43.34;100722.84;4960815;29;19982;-84
2021/12/22 12:56:58;;;;;;;;;;;;;;;4.83;44.27;100712.81;4946282;29;20404;-84
2021/12/22 12:59:43;;;;;;;;;;;;;;;4.39;45.15;100712.75;4949765;29;19927;-84
2021/12/22 13:02:20;;;;;;;;;;;;;;;4.02;45.94;100718.81;4971967;29;19942;-82
2021/12/22 13:04:56;;;;;;;;;;;;;;;3.74;46.75;100718.41;4964276;28;19958;-83
2021/12/22 13:07:26;;;;;;;;;;;;;;;3.30;46.71;100718.16;4967277;29;20007;-85
2021/12/22 13:09:59;;;;;;;;;;;;;;;3.04;48.27;100718.63;4944416;29;19996;-84
2021/12/22 13:12:46;;;;;;;;;;;;;;;2.76;48.79;100726.56;4940793;29;19932;-85
2021/12/22 13:18:07;;;;;;;;;;;;;;;2.30;50.16;100723.53;4956851;29;19927;-85
2021/12/22 13:20:38;;;;;;;;;;;;;;;2.17;50.27;100726.22;4925331;29;20388;-83
2021/12/22 13:23:10;;;;;;;;;;;;;;;2.26;51.23;100726.66;4940767;29;19926;-86
2021/12/22 13:25:40;;;;;;;;;;;;;;;2.22;51.44;100724.81;4973583;28;20375;-86
2021/12/22 13:28:13;;;;;;;;;;;;;;;2.20;51.36;100716.31;4995490;28;19933;-86
2021/12/22 13:30:45;;;;;;;;;;;;;;;2.11;51.33;100715.88;4996197;28;20016;-86
2021/12/22 13:33:18;;;;;;;;;;;;;;;1.92;51.72;100713.22;4997006;28;19926;-86
2021/12/22 13:35:54;;;;;;;;;;;;;;;1.86;53.11;100712.91;4964168;28;19932;-87
2021/12/22 13:38:25;;;;;;;;;;;;;;;1.78;53.53;100719.19;4996427;28;19926;-87
2021/12/22 13:41:06;;;;;;;;;;;;;;;1.69;54.41;100714.56;4997273;28;20434;-87
2021/12/22 13:43:36;;;;;;;;;;;;;;;1.69;54.09;100708.66;4995754;28;19926;-87
2021/12/22 13:46:14;;;;;;;;;;;;;;;1.73;54.64;100705.50;4997091;28;19926;-87
2021/12/22 13:48:50;;;;;;;;;;;;;;;1.49;54.56;100699.25;4995784;28;19929;-87
2021/12/22 13:51:22;;;;;;;;;;;;;;;1.46;54.90;100706.63;4997203;28;20008;-87
2021/12/22 13:53:55;;;;;;;;;;;;;;;1.51;55.00;100703.59;4995520;28;20367;-86
2021/12/22 13:56:26;;;;;;;;;;;;;;;1.61;54.16;100713.31;4995683;28;19925;-86
2021/12/22 13:58:57;;;;;;;;;;;;;;;1.67;54.19;100710.25;4995912;28;20356;-85
2021/12/22 14:01:38;;;;;;;;;;;;;;;1.63;54.80;100709.22;4996550;28;20020;-88
2021/12/22 14:04:15;;;;;;;;;;;;;;;1.77;55.34;100709.94;4996604;28;19980;-87
2021/12/22 14:06:50;;;;;;;;;;;;;;;1.80;56.03;100712.63;4996856;28;19925;-87
2021/12/22 14:09:21;;;;;;;;;;;;;;;1.56;56.63;100721.44;4996375;28;20290;-85
2021/12/22 14:12:11;;;;;;;;;;;;;;;1.16;57.46;100709.28;4979138;28;20376;-86
2021/12/22 14:14:48;;;;;;;;;;;;;;;0.99;58.80;100715.06;4996166;28;20017;-84
2021/12/22 14:17:20;;;;;;;;;;;;;;;1.02;59.19;100711.84;4996117;28;19926;-86
2021/12/22 14:20:02;;;;;;;;;;;;;;;1.05;59.35;100710.38;4996111;28;19925;-85
2021/12/22 14:22:35;;;;;;;;;;;;;;;1.08;59.34;100710.50;4995163;28;20388;-86
2021/12/22 14:25:09;;;;;;;;;;;;;;;1.02;59.96;100720.25;4996408;28;19948;-87
2021/12/22 14:27:40;;;;;;;;;;;;;;;0.88;60.06;100723.66;4995928;28;19976;-85
2021/12/22 14:30:22;;;;;;;;;;;;;;;0.74;60.77;100724.56;4994704;28;19926;-85
2021/12/22 14:32:57;;;;;;;;;;;;;;;0.51;61.47;100714.88;4995986;28;19925;-87
2021/12/22 14:35:31;;;;;;;;;;;;;;;0.38;62.55;100709.97;4994833;28;19926;-85
2021/12/22 14:38:05;;;;;;;;;;;;;;;0.34;62.23;100708.06;4995706;28;19929;-88
2021/12/22 14:40:42;;;;;;;;;;;;;;;0.12;63.31;100705.97;4996133;28;20394;-87
2021/12/22 14:43:19;;;;;;;;;;;;;;;0.10;63.89;100711.72;4996314;28;19929;-88
2021/12/22 14:45:51;;;;;;;;;;;;;;;0.07;63.85;100706.53;4995825;28;19925;-87
2021/12/22 14:48:21;;;;;;;;;;;;;;;-0.01;63.91;100714.47;4994519;28;19933;-84
2021/12/22 14:51:08;;;;;;;;;;;;;;;-0.13;64.46;100718.78;4978841;28;19933;-85
2021/12/22 14:53:52;;;;;;;;;;;;;;;-0.22;64.77;100712.38;4992978;28;20411;-87
2021/12/22 14:56:27;;;;;;;;;;;;;;;-0.33;65.17;100710.84;4996002;28;19947;-85
2021/12/22 14:58:58;;;;;;;;;;;;;;;-0.34;65.24;100716.66;4994722;28;20024;-84
2021/12/22 15:01:31;;;;;;;;;;;;;;;-0.28;65.31;100706.97;4995460;28;19989;-86
2021/12/22 15:04:03;;;;;;;;;;;;;;;-0.29;64.75;100711.13;4995105;28;20414;-85
2021/12/22 15:06:45;;;;;;;;;;;;;;;-0.39;65.11;100718.91;4995222;28;20020;-83
2021/12/22 15:09:18;;;;;;;;;;;;;;;-0.42;65.38;100723.72;4978406;28;19929;-85
2021/12/22 15:11:53;;;;;;;;;;;;;;;-0.42;64.81;100718.72;4995556;28;19949;-87
2021/12/22 15:14:31;;;;;;;;;;;;;;;-0.50;64.68;100719.91;4978591;28;19936;-84
2021/12/22 15:17:27;;;;;;;;;;;;;;;-0.67;64.49;100730.53;4997699;28;19933;-83